createdAt,value
2018-12-27T00:01:47.871Z,6.63
2018-12-27T00:04:18.363Z,9.17
2018-12-27T00:06:49.094Z,7.63
2018-12-27T00:09:19.875Z,6.83
2018-12-27T00:11:50.325Z,7.83
2018-12-27T00:14:20.831Z,10.27
2018-12-27T00:16:51.790Z,8.00
2018-12-27T00:19:22.552Z,7.57
2018-12-27T00:21:53.062Z,8.63
2018-12-27T00:24:23.582Z,6.73
2018-12-27T00:26:54.110Z,7.87
2018-12-27T00:29:24.641Z,7.07
2018-12-27T00:31:55.328Z,8.43
2018-12-27T00:34:26.033Z,9.23
2018-12-27T00:36:56.768Z,7.27
2018-12-27T00:39:27.404Z,8.63
2018-12-27T00:41:58.092Z,6.30
2018-12-27T00:44:28.676Z,9.20
2018-12-27T00:46:59.651Z,7.53
2018-12-27T00:49:30.642Z,7.43
2018-12-27T00:52:01.296Z,7.13
2018-12-27T00:54:31.906Z,7.63
2018-12-27T00:57:02.604Z,7.37
2018-12-27T00:59:33.184Z,8.43
2018-12-27T01:02:03.874Z,8.33
2018-12-27T01:04:34.495Z,8.40
2018-12-27T01:07:05.111Z,8.33
2018-12-27T01:09:35.697Z,8.57
2018-12-27T01:12:06.351Z,6.33
2018-12-27T01:14:37.051Z,7.23
2018-12-27T01:17:08.079Z,6.80
2018-12-27T01:19:38.732Z,6.03
2018-12-27T01:22:09.318Z,6.67
2018-12-27T01:24:39.940Z,4.47
2018-12-27T01:27:11.090Z,5.73
2018-12-27T01:29:41.749Z,3.50
2018-12-27T01:32:12.515Z,7.53
2018-12-27T01:34:43.220Z,8.73
2018-12-27T01:37:15.343Z,8.07
2018-12-27T01:39:46.571Z,8.13
2018-12-27T01:42:17.177Z,8.70
2018-12-27T01:44:47.726Z,9.17
2018-12-27T01:47:18.357Z,9.47
2018-12-27T01:49:49.017Z,8.73
2018-12-27T01:52:19.903Z,7.30
2018-12-27T01:54:51.447Z,8.40
2018-12-27T01:57:23.251Z,3.83
2018-12-27T01:59:54.252Z,6.83
2018-12-27T02:02:24.940Z,6.73
2018-12-27T02:04:55.760Z,3.73
2018-12-27T02:07:26.556Z,5.90
2018-12-27T02:09:57.169Z,4.83
2018-12-27T02:12:28.520Z,5.83
2018-12-27T02:14:59.885Z,5.00
2018-12-27T02:17:30.599Z,6.73
2018-12-27T02:20:01.285Z,6.57
2018-12-27T02:22:31.985Z,5.87
2018-12-27T02:25:02.904Z,7.27
2018-12-27T02:27:33.638Z,5.63
2018-12-27T02:30:04.291Z,7.10
2018-12-27T02:32:36.968Z,4.20
2018-12-27T02:35:07.583Z,6.23
2018-12-27T02:37:38.921Z,4.97
2018-12-27T02:40:09.535Z,6.50
2018-12-27T02:42:40.218Z,6.03
2018-12-27T02:45:11.271Z,5.03
2018-12-27T02:47:42.048Z,5.33
2018-12-27T02:50:12.653Z,5.53
2018-12-27T02:52:43.424Z,5.97
2018-12-27T02:55:14.459Z,7.30
2018-12-27T02:57:45.212Z,3.53
2018-12-27T03:00:15.953Z,5.00
2018-12-27T03:02:47.368Z,4.20
2018-12-27T03:05:18.051Z,7.07
2018-12-27T03:07:48.720Z,6.37
2018-12-27T03:10:19.348Z,7.43
2018-12-27T03:12:49.996Z,3.93
2018-12-27T03:15:20.673Z,5.87
2018-12-27T03:17:51.481Z,5.83
2018-12-27T03:20:22.179Z,5.57
2018-12-27T03:22:52.995Z,7.57
2018-12-27T03:25:23.819Z,7.47
2018-12-27T03:27:54.479Z,7.17
2018-12-27T03:30:25.173Z,7.53
2018-12-27T03:32:55.941Z,7.03
2018-12-27T03:35:26.575Z,7.67
2018-12-27T03:37:57.251Z,8.60
2018-12-27T03:40:27.837Z,7.50
2018-12-27T03:42:58.564Z,6.00
2018-12-27T03:45:29.179Z,8.27
2018-12-27T03:47:59.888Z,7.20
2018-12-27T03:50:30.614Z,6.27
2018-12-27T03:53:01.692Z,5.63
2018-12-27T03:55:32.413Z,6.97
2018-12-27T03:58:03.485Z,6.00
2018-12-27T04:00:34.138Z,6.30
2018-12-27T04:03:04.883Z,7.43
2018-12-27T04:05:35.485Z,6.60
2018-12-27T04:08:06.141Z,5.97
2018-12-27T04:10:36.733Z,6.27
2018-12-27T04:13:07.940Z,5.97
2018-12-27T04:15:38.417Z,6.63
2018-12-27T04:18:08.928Z,5.70
2018-12-27T04:20:39.476Z,5.67
2018-12-27T04:23:10.137Z,6.93
2018-12-27T04:25:40.849Z,5.73
2018-12-27T04:28:11.289Z,4.67
2018-12-27T04:30:41.891Z,5.97
2018-12-27T04:33:16.993Z,5.33
2018-12-27T04:35:49.779Z,6.60
2018-12-27T04:38:20.246Z,6.47
2018-12-27T04:41:02.953Z,6.23
2018-12-27T04:43:36.294Z,5.80
2018-12-27T04:46:06.074Z,5.43
2018-12-27T04:48:36.212Z,5.33
2018-12-27T04:51:06.126Z,5.07
2018-12-27T04:53:35.880Z,6.43
2018-12-27T04:56:05.744Z,7.37
2018-12-27T04:58:35.626Z,6.90
2018-12-27T05:01:05.396Z,5.77
2018-12-27T05:03:35.170Z,7.53
2018-12-27T05:06:05.048Z,6.00
2018-12-27T05:08:34.817Z,7.00
2018-12-27T05:11:04.676Z,5.00
2018-12-27T05:13:34.452Z,8.70
2018-12-27T05:16:04.346Z,7.40
2018-12-27T05:18:34.168Z,6.63
2018-12-27T05:21:04.077Z,6.33
2018-12-27T05:23:33.849Z,5.63
2018-12-27T05:26:03.689Z,8.33
2018-12-27T05:28:34.443Z,6.97
2018-12-27T05:31:04.239Z,7.53
2018-12-27T05:33:33.998Z,5.80
2018-12-27T05:36:03.866Z,7.23
2018-12-27T05:38:33.705Z,6.90
2018-12-27T05:41:03.473Z,7.17
2018-12-27T05:43:33.274Z,4.93
2018-12-27T05:46:03.110Z,8.30
2018-12-27T05:48:32.978Z,7.33
2018-12-27T05:51:02.758Z,5.97
2018-12-27T05:53:32.601Z,8.57
2018-12-27T05:56:02.443Z,6.90
2018-12-27T05:58:32.239Z,8.03
2018-12-27T06:01:02.167Z,5.93
2018-12-27T06:03:32.316Z,6.43
2018-12-27T06:06:02.162Z,5.57
2018-12-27T06:08:31.943Z,8.90
2018-12-27T06:11:02.068Z,8.23
2018-12-27T06:13:32.384Z,7.40
2018-12-27T06:16:02.174Z,9.27
2018-12-27T06:18:32.404Z,8.90
2018-12-27T06:21:02.376Z,7.27
2018-12-27T06:23:32.252Z,8.20
2018-12-27T06:26:03.294Z,7.33
2018-12-27T06:28:33.133Z,10.07
2018-12-27T06:31:02.912Z,7.50
2018-12-27T06:33:32.759Z,7.40
2018-12-27T06:36:02.546Z,7.67
2018-12-27T06:38:32.431Z,9.53
2018-12-27T06:41:02.204Z,7.03
2018-12-27T06:43:31.991Z,7.40
2018-12-27T06:46:02.079Z,7.77
2018-12-27T06:48:31.874Z,7.37
2018-12-27T06:51:01.658Z,7.57
2018-12-27T06:53:31.786Z,7.23
2018-12-27T06:56:01.549Z,7.77
2018-12-27T06:58:37.711Z,8.20
2018-12-27T07:01:02.916Z,6.07
2018-12-27T07:03:32.684Z,8.27
2018-12-27T07:06:02.452Z,7.27
2018-12-27T07:08:32.319Z,7.53
2018-12-27T07:11:02.573Z,6.40
2018-12-27T07:13:32.386Z,7.27
2018-12-27T07:16:02.659Z,7.90
2018-12-27T07:18:36.380Z,8.10
2018-12-27T07:21:06.339Z,8.67
2018-12-27T07:23:36.310Z,9.80
2018-12-27T07:26:06.532Z,9.67
2018-12-27T07:28:36.289Z,7.07
2018-12-27T07:31:06.407Z,7.37
2018-12-27T07:33:36.278Z,7.67
2018-12-27T07:36:08.010Z,8.13
2018-12-27T07:38:37.853Z,15.93
2018-12-27T07:41:07.982Z,9.13
2018-12-27T07:43:37.740Z,7.53
2018-12-27T07:46:11.070Z,9.53
2018-12-27T07:48:40.134Z,7.53
2018-12-27T07:51:10.113Z,9.20
2018-12-27T07:53:39.953Z,8.17
2018-12-27T07:56:09.803Z,7.43
2018-12-27T07:58:39.582Z,7.23
2018-12-27T08:01:09.354Z,7.63
2018-12-27T08:03:40.270Z,6.73
2018-12-27T08:06:10.059Z,7.67
2018-12-27T08:08:39.823Z,8.83
2018-12-27T08:11:09.613Z,7.97
2018-12-27T08:13:39.743Z,7.87
2018-12-27T08:16:09.605Z,7.40
2018-12-27T08:18:39.377Z,9.23
2018-12-27T08:21:09.460Z,8.37
2018-12-27T08:23:39.295Z,7.90
2018-12-27T08:26:09.168Z,9.67
2018-12-27T08:28:39.409Z,8.63
2018-12-27T08:31:09.184Z,7.17
2018-12-27T08:33:38.969Z,7.27
2018-12-27T08:36:08.734Z,7.37
2018-12-27T08:38:38.682Z,8.20
2018-12-27T08:41:08.596Z,16.23
2018-12-27T08:43:38.457Z,15.10
2018-12-27T08:46:08.541Z,9.27
2018-12-27T08:48:38.897Z,7.60
2018-12-27T08:51:08.759Z,8.67
2018-12-27T08:53:38.551Z,9.30
2018-12-27T08:56:08.421Z,8.47
2018-12-27T08:58:38.205Z,10.40
2018-12-27T09:01:07.996Z,9.70
2018-12-27T09:03:38.118Z,8.67
2018-12-27T09:06:08.149Z,9.50
2018-12-27T09:08:38.126Z,10.73
2018-12-27T09:11:08.499Z,9.43
2018-12-27T09:13:38.638Z,9.47
2018-12-27T09:16:08.571Z,7.20
2018-12-27T09:18:41.160Z,10.57
2018-12-27T09:21:11.026Z,10.67
2018-12-27T09:23:41.127Z,10.10
2018-12-27T09:26:11.342Z,9.30
2018-12-27T09:28:41.106Z,8.57
2018-12-27T09:31:10.959Z,9.00
2018-12-27T09:33:40.805Z,7.90
2018-12-27T09:36:10.823Z,8.23
2018-12-27T09:38:40.640Z,7.13
2018-12-27T09:41:10.433Z,8.43
2018-12-27T09:43:40.194Z,7.93
2018-12-27T09:46:10.050Z,7.10
2018-12-27T09:48:42.597Z,7.40
2018-12-27T09:51:12.658Z,7.53
2018-12-27T09:53:43.007Z,8.50
2018-12-27T09:56:12.966Z,7.67
2018-12-27T09:58:42.903Z,8.00
2018-12-27T10:01:12.856Z,9.80
2018-12-27T10:03:42.658Z,9.50
2018-12-27T10:06:12.490Z,9.43
2018-12-27T10:08:42.395Z,9.33
2018-12-27T10:11:12.484Z,9.50
2018-12-27T10:13:42.389Z,8.43
2018-12-27T10:16:12.165Z,7.77
2018-12-27T10:18:42.059Z,7.80
2018-12-27T10:21:11.933Z,8.20
2018-12-27T10:23:41.686Z,8.30
2018-12-27T10:26:11.786Z,8.87
2018-12-27T10:28:41.551Z,8.07
2018-12-27T10:31:11.375Z,8.83
2018-12-27T10:33:41.130Z,8.73
2018-12-27T10:36:10.977Z,7.60
2018-12-27T10:38:40.749Z,8.97
2018-12-27T10:41:10.576Z,8.63
2018-12-27T10:43:40.505Z,7.90
2018-12-27T10:46:10.308Z,6.63
2018-12-27T10:48:40.063Z,6.70
2018-12-27T10:51:09.894Z,7.47
2018-12-27T10:53:39.729Z,8.33
2018-12-27T10:56:09.885Z,8.37
2018-12-27T10:58:39.658Z,7.10
2018-12-27T11:01:09.478Z,8.13
2018-12-27T11:03:39.391Z,8.83
2018-12-27T11:06:09.591Z,9.03
2018-12-27T11:08:39.371Z,8.10
2018-12-27T11:11:09.886Z,8.60
2018-12-27T11:13:40.135Z,8.67
2018-12-27T11:16:10.901Z,9.37
2018-12-27T11:18:40.857Z,8.80
2018-12-27T11:21:10.895Z,8.43
2018-12-27T11:23:41.453Z,8.97
2018-12-27T11:26:11.464Z,9.33
2018-12-27T11:28:41.333Z,8.70
2018-12-27T11:31:11.353Z,9.00
2018-12-27T11:33:41.286Z,9.63
2018-12-27T11:36:17.160Z,10.10
2018-12-27T11:38:43.759Z,9.53
2018-12-27T11:41:13.673Z,9.53
2018-12-27T11:43:43.575Z,9.43
2018-12-27T11:46:13.726Z,8.70
2018-12-27T11:48:43.581Z,9.83
2018-12-27T11:51:13.461Z,9.20
2018-12-27T11:53:43.593Z,9.40
2018-12-27T11:56:13.738Z,8.73
2018-12-27T11:58:43.920Z,9.33
2018-12-27T12:01:13.976Z,9.90
2018-12-27T12:03:43.841Z,9.27
2018-12-27T12:06:13.789Z,9.37
2018-12-27T12:08:46.662Z,9.17
2018-12-27T12:11:16.959Z,10.03
2018-12-27T12:13:47.479Z,9.93
2018-12-27T12:16:17.505Z,9.70
2018-12-27T12:18:47.391Z,9.90
2018-12-27T12:21:17.383Z,10.73
2018-12-27T12:23:47.703Z,10.47
2018-12-27T12:26:18.066Z,10.80
2018-12-27T12:28:48.260Z,10.57
2018-12-27T12:31:18.587Z,10.60
2018-12-27T12:33:49.593Z,9.53
2018-12-27T12:36:19.893Z,10.20
2018-12-27T12:38:50.487Z,10.43
2018-12-27T12:41:20.801Z,9.67
2018-12-27T12:43:50.921Z,10.00
2018-12-27T12:46:21.454Z,9.27
2018-12-27T12:48:51.715Z,10.40
2018-12-27T12:51:23.142Z,10.87
2018-12-27T12:53:53.622Z,9.63
2018-12-27T12:56:23.919Z,9.70
2018-12-27T12:58:54.143Z,9.77
2018-12-27T13:01:24.444Z,10.50
2018-12-27T13:03:54.726Z,10.17
2018-12-27T13:06:25.040Z,9.60
2018-12-27T13:08:55.322Z,9.87
2018-12-27T13:11:26.811Z,10.53
2018-12-27T13:13:57.101Z,9.30
2018-12-27T13:16:27.319Z,9.57
2018-12-27T13:18:57.907Z,9.73
2018-12-27T13:21:28.780Z,9.90
2018-12-27T13:23:58.980Z,9.97
2018-12-27T13:26:28.823Z,9.93
2018-12-27T13:28:58.592Z,9.53
2018-12-27T13:31:28.378Z,10.07
2018-12-27T13:33:58.282Z,9.10
2018-12-27T13:36:28.477Z,10.17
2018-12-27T13:38:58.263Z,10.27
2018-12-27T13:41:28.025Z,8.67
2018-12-27T13:43:57.884Z,10.13
2018-12-27T13:46:27.684Z,10.13
2018-12-27T13:48:57.474Z,10.43
2018-12-27T13:51:27.250Z,9.67
2018-12-27T13:53:57.013Z,9.13
2018-12-27T13:56:26.882Z,9.03
2018-12-27T13:58:56.730Z,9.67
2018-12-27T14:01:26.575Z,8.63
2018-12-27T14:03:56.494Z,10.57
2018-12-27T14:06:32.568Z,10.37
2018-12-27T14:08:57.753Z,8.77
2018-12-27T14:11:27.663Z,9.03
2018-12-27T14:13:57.515Z,8.87
2018-12-27T14:16:27.450Z,8.57
2018-12-27T14:18:58.185Z,9.10
2018-12-27T14:21:28.045Z,9.40
2018-12-27T14:23:57.839Z,9.30
2018-12-27T14:26:27.831Z,8.80
2018-12-27T14:28:57.691Z,8.40
2018-12-27T14:31:29.343Z,9.20
2018-12-27T14:34:01.093Z,8.93
2018-12-27T14:36:31.614Z,8.17
2018-12-27T14:39:04.668Z,8.93
2018-12-27T14:41:34.478Z,8.20
2018-12-27T14:44:04.358Z,8.53
2018-12-27T14:46:34.799Z,7.67
2018-12-27T14:49:04.673Z,8.13
2018-12-27T14:51:34.447Z,8.07
2018-12-27T14:54:04.374Z,9.00
2018-12-27T14:56:34.238Z,9.57
2018-12-27T14:59:04.087Z,8.77
2018-12-27T15:01:33.940Z,8.63
2018-12-27T15:04:03.797Z,9.70
2018-12-27T15:06:33.643Z,8.80
2018-12-27T15:09:04.794Z,9.10
2018-12-27T15:11:34.626Z,8.93
2018-12-27T15:14:04.646Z,7.97
2018-12-27T15:16:42.060Z,9.63
2018-12-27T15:19:12.545Z,8.83
2018-12-27T15:21:42.768Z,8.40
2018-12-27T15:24:13.049Z,9.60
2018-12-27T15:26:46.058Z,8.43
2018-12-27T15:29:17.228Z,8.27
2018-12-27T15:31:46.971Z,8.27
2018-12-27T15:34:16.896Z,8.17
2018-12-27T15:36:46.798Z,8.30
2018-12-27T15:39:16.942Z,9.73
2018-12-27T15:41:46.771Z,9.67
2018-12-27T15:44:16.656Z,10.33
2018-12-27T15:46:46.430Z,10.23
2018-12-27T15:49:16.558Z,9.87
2018-12-27T15:52:00.902Z,9.57
2018-12-27T15:54:31.034Z,10.13
2018-12-27T15:57:00.879Z,9.83
2018-12-27T15:59:30.679Z,11.67
2018-12-27T16:02:00.463Z,12.73
2018-12-27T16:04:30.240Z,10.80
2018-12-27T16:07:01.960Z,10.97
2018-12-27T16:09:34.875Z,9.60
2018-12-27T16:12:04.797Z,10.07
2018-12-27T16:14:34.714Z,9.87
2018-12-27T16:17:05.099Z,10.17
2018-12-27T16:19:35.762Z,11.67
2018-12-27T16:22:05.633Z,9.77
2018-12-27T16:24:35.473Z,10.10
2018-12-27T16:27:05.342Z,10.70
2018-12-27T16:29:35.171Z,10.10
2018-12-27T16:32:05.045Z,10.63
2018-12-27T16:34:35.295Z,10.63
2018-12-27T16:37:08.895Z,9.57
2018-12-27T16:39:38.405Z,10.00
2018-12-27T16:42:08.351Z,9.53
2018-12-27T16:44:38.232Z,9.33
2018-12-27T16:47:08.026Z,9.60
2018-12-27T16:49:37.846Z,9.63
2018-12-27T16:52:07.771Z,10.00
2018-12-27T16:54:37.806Z,8.03
2018-12-27T16:57:08.572Z,9.70
2018-12-27T16:59:38.500Z,8.73
2018-12-27T17:02:08.457Z,9.00
2018-12-27T17:04:38.521Z,7.93
2018-12-27T17:07:08.381Z,8.23
2018-12-27T17:09:38.243Z,8.13
2018-12-27T17:12:08.483Z,7.50
2018-12-27T17:14:38.315Z,9.43
2018-12-27T17:17:08.136Z,7.30
2018-12-27T17:19:38.030Z,9.57
2018-12-27T17:22:07.834Z,8.83
2018-12-27T17:24:37.769Z,9.67
2018-12-27T17:27:08.009Z,9.13
2018-12-27T17:29:38.198Z,8.93
2018-12-27T17:32:09.387Z,9.37
2018-12-27T17:34:42.486Z,8.63
2018-12-27T17:37:12.426Z,10.90
2018-12-27T17:39:42.337Z,9.37
2018-12-27T17:42:12.226Z,11.30
2018-12-27T17:44:42.001Z,11.23
2018-12-27T17:47:11.782Z,10.07
2018-12-27T17:49:41.628Z,9.63
2018-12-27T17:52:11.430Z,11.30
2018-12-27T17:54:41.281Z,9.10
2018-12-27T17:57:11.229Z,10.23
2018-12-27T17:59:41.239Z,11.80
2018-12-27T18:02:11.214Z,11.10
2018-12-27T18:04:41.167Z,9.90
2018-12-27T18:07:11.102Z,11.07
2018-12-27T18:09:41.233Z,9.77
2018-12-27T18:12:11.100Z,9.07
2018-12-27T18:14:41.351Z,10.37
2018-12-27T18:17:11.151Z,18.57
2018-12-27T18:19:40.975Z,15.20
2018-12-27T18:22:10.782Z,21.43
2018-12-27T18:24:42.180Z,14.27
2018-12-27T18:27:12.090Z,12.47
2018-12-27T18:29:41.966Z,10.83
2018-12-27T18:32:11.813Z,9.60
2018-12-27T18:34:41.655Z,10.97
2018-12-27T18:37:11.602Z,10.67
2018-12-27T18:39:41.472Z,14.33
2018-12-27T18:42:11.368Z,13.07
2018-12-27T18:44:41.242Z,14.47
2018-12-27T18:47:11.382Z,11.57
2018-12-27T18:49:41.316Z,13.10
2018-12-27T18:52:11.622Z,12.97
2018-12-27T18:54:41.625Z,11.70
2018-12-27T18:57:12.717Z,12.20
2018-12-27T18:59:42.282Z,11.97
2018-12-27T19:02:11.614Z,13.17
2018-12-27T19:04:41.290Z,9.83
2018-12-27T19:07:10.902Z,12.07
2018-12-27T19:09:40.198Z,10.00
2018-12-27T19:12:27.390Z,12.10
2018-12-27T19:14:59.113Z,12.90
2018-12-27T19:17:30.959Z,13.43
2018-12-27T19:20:00.273Z,18.10
2018-12-27T19:22:48.764Z,15.87
2018-12-27T19:25:18.377Z,13.43
2018-12-27T19:27:47.903Z,12.23
2018-12-27T19:30:17.267Z,13.10
2018-12-27T19:32:46.642Z,13.70
2018-12-27T19:35:17.056Z,12.20
2018-12-27T19:37:52.037Z,13.87
2018-12-27T19:40:17.496Z,12.00
2018-12-27T19:42:46.713Z,15.63
2018-12-27T19:45:17.210Z,14.80
2018-12-27T19:47:47.070Z,12.47
2018-12-27T19:50:22.284Z,13.17
2018-12-27T19:52:51.901Z,12.33
2018-12-27T19:55:21.630Z,11.87
2018-12-27T19:57:51.082Z,12.20
2018-12-27T20:00:20.440Z,12.97
2018-12-27T20:02:49.771Z,13.70
2018-12-27T20:05:19.133Z,12.97
2018-12-27T20:07:48.851Z,11.27
2018-12-27T20:10:18.197Z,12.03
2018-12-27T20:12:47.970Z,12.87
2018-12-27T20:15:17.283Z,12.63
2018-12-27T20:17:46.559Z,13.07
2018-12-27T20:20:15.850Z,12.27
2018-12-27T20:22:45.073Z,12.97
2018-12-27T20:25:20.988Z,13.00
2018-12-27T20:27:50.571Z,11.90
2018-12-27T20:30:19.953Z,10.70
2018-12-27T20:32:49.542Z,10.70
2018-12-27T20:35:18.824Z,13.10
2018-12-27T20:37:48.258Z,10.30
2018-12-27T20:40:17.500Z,12.00
2018-12-27T20:42:46.845Z,10.17
2018-12-27T20:45:16.296Z,12.97
2018-12-27T20:47:45.903Z,13.57
2018-12-27T20:50:15.240Z,14.13
2018-12-27T20:52:44.525Z,15.87
2018-12-27T20:55:14.190Z,13.10
2018-12-27T20:57:43.459Z,12.93
2018-12-27T21:00:13.838Z,13.47
2018-12-27T21:02:43.137Z,12.10
2018-12-27T21:05:12.458Z,12.60
2018-12-27T21:07:41.799Z,12.00
2018-12-27T21:10:15.383Z,12.77
2018-12-27T21:12:46.076Z,12.43
2018-12-27T21:15:15.628Z,11.87
2018-12-27T21:17:44.954Z,11.53
2018-12-27T21:20:14.698Z,12.47
2018-12-27T21:22:50.316Z,12.43
2018-12-27T21:25:19.934Z,13.07
2018-12-27T21:27:49.539Z,13.80
2018-12-27T21:30:20.978Z,11.90
2018-12-27T21:32:50.270Z,12.07
2018-12-27T21:35:19.515Z,11.77
2018-12-27T21:37:50.443Z,11.20
2018-12-27T21:40:19.794Z,12.80
2018-12-27T21:42:49.069Z,9.70
2018-12-27T21:45:18.606Z,11.47
2018-12-27T21:47:48.918Z,11.57
2018-12-27T21:50:18.494Z,10.97
2018-12-27T21:52:48.022Z,9.23
2018-12-27T21:55:17.699Z,8.37
2018-12-27T21:57:47.622Z,12.47
2018-12-27T22:00:16.968Z,9.97
2018-12-27T22:02:46.283Z,11.27
2018-12-27T22:05:15.548Z,13.37
2018-12-27T22:07:44.841Z,14.17
2018-12-27T22:10:14.108Z,8.93
2018-12-27T22:12:43.339Z,11.67
2018-12-27T22:15:12.631Z,11.70
2018-12-27T22:17:41.833Z,11.50
2018-12-27T22:20:11.138Z,12.23
2018-12-27T22:22:41.446Z,10.67
2018-12-27T22:25:11.083Z,9.43
2018-12-27T22:27:40.294Z,11.80
2018-12-27T22:30:09.579Z,11.30
2018-12-27T22:32:39.154Z,10.43
2018-12-27T22:35:08.363Z,10.70
2018-12-27T22:37:38.251Z,10.83
2018-12-27T22:40:07.528Z,9.50
2018-12-27T22:42:37.242Z,10.30
2018-12-27T22:45:06.727Z,10.80
2018-12-27T22:47:35.947Z,11.47
2018-12-27T22:50:05.605Z,11.10
2018-12-27T22:52:34.936Z,9.90
2018-12-27T22:55:04.325Z,11.90
2018-12-27T22:57:33.935Z,11.40
2018-12-27T23:00:03.274Z,12.10
2018-12-27T23:02:33.546Z,13.73
2018-12-27T23:05:02.850Z,12.47
2018-12-27T23:07:32.047Z,9.80
2018-12-27T23:10:01.249Z,9.63
2018-12-27T23:12:31.631Z,8.90
2018-12-27T23:15:00.859Z,10.43
2018-12-27T23:17:30.060Z,8.83
2018-12-27T23:19:59.278Z,8.83
2018-12-27T23:22:28.500Z,9.50
2018-12-27T23:24:57.788Z,11.70
2018-12-27T23:27:26.980Z,10.23
2018-12-27T23:29:56.211Z,10.40
2018-12-27T23:32:25.486Z,10.07
2018-12-27T23:34:54.696Z,11.77
2018-12-27T23:37:23.905Z,10.23
2018-12-27T23:39:53.197Z,11.97
2018-12-27T23:42:22.474Z,11.70
2018-12-27T23:44:51.770Z,9.07
2018-12-27T23:47:20.993Z,10.90
2018-12-27T23:49:50.214Z,10.83
2018-12-27T23:52:19.518Z,9.97
2018-12-27T23:54:49.200Z,9.93
2018-12-27T23:57:24.449Z,10.90
2018-12-27T23:59:53.675Z,10.00
